^^
Your Local Weather - Clay, NY Station Historical Data
Daily Summary for March 11, 2017 Units:  English    Metric   Both
« Previous Day
Next Day »
Daily Weekly Monthly Yearly Custom
  High: Low: Average:
Temperature: 17.8 °F 9.5 °F 13.7 °F
Dew Point: 11.6 °F -3.3 °F 3.7 °F
Humidity: 84% 50% 65%
Wind Speed: 9.0mph 1.0mph 5.1mph
Wind Gust: 16.0mph - -
Wind- - NW
Pressure: 30.31 in 30.11 in -
Precipitation: 0.00 in    
Historical Graphs
 
 
Tabular Data for March 11, 2017
Time Temperature Dew Point Pressure Wind Wind Speed Wind Gust Humidity Rainfall Rate (Hourly) solar
00:00 12.2 °F -2.5 °F 30.11 in NNW 5.0 mph 6.0 mph 51% 0.00 in 0 W/m2
00:06 12.2 °F -2.5 °F 30.11 in West 6.0 mph 8.0 mph 51% 0.00 in 0 W/m2
00:12 12.1 °F -2.2 °F 30.11 in NW 7.0 mph 7.0 mph 52% 0.00 in 0 W/m2
00:18 12.0 °F -2.3 °F 30.11 in NW 7.0 mph 10.0 mph 52% 0.00 in 0 W/m2
00:24 11.9 °F -2.0 °F 30.11 in NW 5.0 mph 7.0 mph 53% 0.00 in 0 W/m2
00:30 11.8 °F -2.5 °F 30.12 in WNW 4.0 mph 4.0 mph 52% 0.00 in 0 W/m2
00:36 11.8 °F -2.9 °F 30.12 in NW 5.0 mph 8.0 mph 51% 0.00 in 0 W/m2
00:42 11.9 °F -2.8 °F 30.12 in NW 5.0 mph 16.0 mph 51% 0.00 in 0 W/m2
00:48 12.0 °F -3.1 °F 30.11 in NNW 6.0 mph 16.0 mph 50% 0.00 in 0 W/m2
00:54 12.0 °F -2.3 °F 30.12 in NNW 6.0 mph 10.0 mph 52% 0.00 in 0 W/m2
01:00 12.1 °F -2.2 °F 30.12 in North 7.0 mph 7.0 mph 52% 0.00 in 0 W/m2
01:06 12.1 °F -3.0 °F 30.12 in NNW 6.0 mph 9.0 mph 50% 0.00 in 0 W/m2
01:12 12.1 °F -2.6 °F 30.12 in NW 8.0 mph 9.0 mph 51% 0.00 in 0 W/m2
01:18 12.1 °F -2.2 °F 30.13 in NNW 6.0 mph 9.0 mph 52% 0.00 in 0 W/m2
01:24 12.1 °F -2.6 °F 30.13 in NNW 5.0 mph 7.0 mph 51% 0.00 in 0 W/m2
01:30 12.1 °F -2.6 °F 30.13 in NNW 6.0 mph 6.0 mph 51% 0.00 in 0 W/m2
01:36 12.1 °F -2.2 °F 30.12 in NNW 6.0 mph 7.0 mph 52% 0.00 in 0 W/m2
01:42 12.1 °F -1.8 °F 30.13 in NNW 6.0 mph 16.0 mph 53% 0.00 in 0 W/m2
01:48 12.1 °F -1.0 °F 30.12 in NW 6.0 mph 16.0 mph 55% 0.00 in 0 W/m2
01:54 12.0 °F -1.1 °F 30.12 in NW 7.0 mph 12.0 mph 55% 0.00 in 0 W/m2
02:00 11.9 °F -1.2 °F 30.12 in North 9.0 mph 9.0 mph 55% 0.00 in 0 W/m2
02:06 12.0 °F -1.5 °F 30.12 in NW 7.0 mph 9.0 mph 54% 0.00 in 0 W/m2
02:12 12.0 °F -1.5 °F 30.12 in North 5.0 mph 6.0 mph 54% 0.00 in 0 W/m2
02:18 12.1 °F -0.6 °F 30.12 in NNW 5.0 mph 6.0 mph 56% 0.00 in 0 W/m2
02:24 12.0 °F -0.7 °F 30.12 in North 4.0 mph 7.0 mph 56% 0.00 in 0 W/m2
02:30 11.7 °F -0.6 °F 30.12 in North 6.0 mph 10.0 mph 57% 0.00 in 0 W/m2
02:36 11.5 °F -0.4 °F 30.12 in NW 7.0 mph 10.0 mph 58% 0.00 in 0 W/m2
02:42 11.2 °F 0.4 °F 30.12 in NNE 7.0 mph 11.0 mph 61% 0.00 in 0 W/m2
02:48 11.0 °F 0.9 °F 30.12 in NW 7.0 mph 11.0 mph 63% 0.00 in 0 W/m2
02:54 10.7 °F 0.9 °F 30.12 in NNW 7.0 mph 15.0 mph 64% 0.00 in 0 W/m2
03:00 10.5 °F 1.0 °F 30.12 in NW 8.0 mph 8.0 mph 65% 0.00 in 0 W/m2
03:06 10.5 °F 1.4 °F 30.12 in North 6.0 mph 9.0 mph 66% 0.00 in 0 W/m2
03:12 10.6 °F 0.5 °F 30.12 in NNW 6.0 mph 8.0 mph 63% 0.00 in 0 W/m2
03:18 10.6 °F -0.2 °F 30.12 in NNW 7.0 mph 10.0 mph 61% 0.00 in 0 W/m2
03:24 10.6 °F 0.1 °F 30.13 in NNW 7.0 mph 7.0 mph 62% 0.00 in 0 W/m2
03:30 10.6 °F -0.2 °F 30.13 in North 6.0 mph 6.0 mph 61% 0.00 in 0 W/m2
03:36 10.5 °F -0.3 °F 30.13 in North 5.0 mph 8.0 mph 61% 0.00 in 0 W/m2
03:42 10.3 °F -1.2 °F 30.13 in NNW 6.0 mph 11.0 mph 59% 0.00 in 0 W/m2
03:48 10.3 °F -1.2 °F 30.13 in NW 6.0 mph 11.0 mph 59% 0.00 in 0 W/m2
03:54 10.2 °F -0.9 °F 30.13 in NNW 6.0 mph 7.0 mph 60% 0.00 in 0 W/m2
04:00 10.2 °F -1.3 °F 30.13 in NNW 6.0 mph 9.0 mph 59% 0.00 in 0 W/m2
04:06 10.1 °F -1.4 °F 30.13 in NW 6.0 mph 9.0 mph 59% 0.00 in 0 W/m2
04:12 10.0 °F -1.9 °F 30.13 in NNE 6.0 mph 10.0 mph 58% 0.00 in 0 W/m2
04:18 9.9 °F -0.9 °F 30.13 in NNW 6.0 mph 10.0 mph 61% 0.00 in 0 W/m2
04:24 10.0 °F -1.9 °F 30.14 in NNW 4.0 mph 7.0 mph 58% 0.00 in 0 W/m2
04:30 9.9 °F -2.3 °F 30.14 in North 6.0 mph 6.0 mph 57% 0.00 in 0 W/m2
04:36 10.0 °F -2.2 °F 30.14 in NW 5.0 mph 6.0 mph 57% 0.00 in 0 W/m2
04:42 10.0 °F -2.6 °F 30.15 in NW 3.0 mph 4.0 mph 56% 0.00 in 0 W/m2
04:48 10.0 °F -2.6 °F 30.15 in NW 4.0 mph 6.0 mph 56% 0.00 in 0 W/m2
04:54 10.0 °F -3.0 °F 30.15 in NW 5.0 mph 7.0 mph 55% 0.00 in 0 W/m2
05:00 9.9 °F -3.1 °F 30.15 in NNW 4.0 mph 6.0 mph 55% 0.00 in 0 W/m2
05:06 9.8 °F -3.2 °F 30.15 in North 6.0 mph 8.0 mph 55% 0.00 in 0 W/m2
05:12 9.7 °F -2.9 °F 30.15 in NW 5.0 mph 6.0 mph 56% 0.00 in 0 W/m2
05:18 9.7 °F -3.3 °F 30.15 in NW 4.0 mph 7.0 mph 55% 0.00 in 0 W/m2
05:24 9.7 °F -2.5 °F 30.15 in NNW 3.0 mph 4.0 mph 57% 0.00 in 0 W/m2
05:30 9.6 °F -2.6 °F 30.15 in NNW 3.0 mph 3.0 mph 57% 0.00 in 0 W/m2
05:36 9.6 °F -3.0 °F 30.15 in NW 3.0 mph 5.0 mph 56% 0.00 in 0 W/m2
05:42 9.6 °F -3.0 °F 30.16 in NNW 4.0 mph 6.0 mph 56% 0.00 in 0 W/m2
05:48 9.6 °F -2.2 °F 30.16 in NW 3.0 mph 6.0 mph 58% 0.00 in 0 W/m2
05:54 9.6 °F -2.6 °F 30.16 in NNW 2.0 mph 4.0 mph 57% 0.00 in 0 W/m2
06:00 9.6 °F -3.0 °F 30.16 in NNW 2.0 mph 2.0 mph 56% 0.00 in 0 W/m2
06:06 9.6 °F -3.0 °F 30.16 in NW 3.0 mph 3.0 mph 56% 0.00 in 0 W/m2
06:12 9.6 °F -3.0 °F 30.16 in NW 3.0 mph 3.0 mph 56% 0.00 in 0 W/m2
06:18 9.6 °F -3.0 °F 30.16 in NW 2.0 mph 3.0 mph 56% 0.00 in 0 W/m2
06:24 9.5 °F -2.7 °F 30.16 in NW 1.0 mph 4.0 mph 57% 0.00 in 5 W/m2
06:30 9.5 °F -2.7 °F 30.16 in NNW 2.0 mph 3.0 mph 57% 0.00 in 9 W/m2
06:36 9.6 °F -3.0 °F 30.17 in NW 3.0 mph 6.0 mph 56% 0.00 in 16 W/m2
06:42 9.8 °F -3.2 °F 30.17 in WNW 4.0 mph 4.0 mph 55% 0.00 in 18 W/m2
06:48 9.9 °F -3.1 °F 30.17 in NNW 3.0 mph 4.0 mph 55% 0.00 in 25 W/m2
06:54 10.0 °F -2.6 °F 30.17 in NNW 3.0 mph 6.0 mph 56% 0.00 in 33 W/m2
07:00 10.1 °F -2.9 °F 30.17 in NW 4.0 mph 4.0 mph 55% 0.00 in 35 W/m2
07:06 10.2 °F -2.4 °F 30.17 in NNW 4.0 mph 4.0 mph 56% 0.00 in 42 W/m2
07:12 10.4 °F -2.2 °F 30.18 in WNW 2.0 mph 3.0 mph 56% 0.00 in 44 W/m2
07:18 10.7 °F -2.3 °F 30.18 in NW 2.0 mph 4.0 mph 55% 0.00 in 69 W/m2
07:24 10.9 °F -2.5 °F 30.18 in NW 2.0 mph 8.0 mph 54% 0.00 in 79 W/m2
07:30 11.2 °F -2.6 °F 30.17 in NNW 3.0 mph 3.0 mph 53% 0.00 in 102 W/m2
07:36 11.4 °F -2.4 °F 30.17 in WNW 4.0 mph 4.0 mph 53% 0.00 in 77 W/m2
07:42 11.8 °F -2.1 °F 30.18 in NW 4.0 mph 6.0 mph 53% 0.00 in 83 W/m2
07:48 12.1 °F -1.8 °F 30.18 in NNW 4.0 mph 6.0 mph 53% 0.00 in 137 W/m2
07:54 12.2 °F -2.1 °F 30.18 in North 5.0 mph 7.0 mph 52% 0.00 in 125 W/m2
08:00 12.0 °F -1.9 °F 30.18 in NW 6.0 mph 6.0 mph 53% 0.00 in 137 W/m2
08:06 12.4 °F -1.5 °F 30.18 in NNW 5.0 mph 7.0 mph 53% 0.00 in 156 W/m2
08:12 12.5 °F -1.8 °F 30.18 in NW 5.0 mph 5.0 mph 52% 0.00 in 171 W/m2
08:18 12.4 °F -1.9 °F 30.18 in NW 5.0 mph 7.0 mph 52% 0.00 in 144 W/m2
08:24 12.3 °F -2.0 °F 30.18 in NW 5.0 mph 6.0 mph 52% 0.00 in 162 W/m2
08:30 12.4 °F -1.5 °F 30.18 in NW 5.0 mph 5.0 mph 53% 0.00 in 185 W/m2
08:36 12.5 °F -1.0 °F 30.18 in NW 5.0 mph 7.0 mph 54% 0.00 in 186 W/m2
08:42 13.0 °F -0.6 °F 30.18 in NNW 5.0 mph 8.0 mph 54% 0.00 in 190 W/m2
08:48 13.4 °F -0.2 °F 30.18 in WNW 5.0 mph 10.0 mph 54% 0.00 in 271 W/m2
08:54 13.7 °F 0.1 °F 30.18 in North 5.0 mph 7.0 mph 54% 0.00 in 227 W/m2
09:00 13.7 °F -0.3 °F 30.18 in NW 5.0 mph 13.0 mph 53% 0.00 in 250 W/m2
09:06 13.3 °F -0.3 °F 30.19 in NW 7.0 mph 13.0 mph 54% 0.00 in 308 W/m2
09:12 13.6 °F 0.4 °F 30.18 in NW 6.0 mph 7.0 mph 55% 0.00 in 255 W/m2
09:18 13.2 °F 0.8 °F 30.19 in NNW 6.0 mph 10.0 mph 57% 0.00 in 223 W/m2
09:24 13.2 °F 1.5 °F 30.18 in NW 6.0 mph 13.0 mph 59% 0.00 in 244 W/m2
09:30 13.3 °F 1.3 °F 30.19 in NW 6.0 mph 6.0 mph 58% 0.00 in 322 W/m2
09:36 14.0 °F 1.9 °F 30.18 in NW 4.0 mph 6.0 mph 58% 0.00 in 316 W/m2
09:42 13.9 °F 1.5 °F 30.18 in WNW 5.0 mph 7.0 mph 57% 0.00 in 241 W/m2
09:48 13.6 °F 1.2 °F 30.18 in NNW 7.0 mph 11.0 mph 57% 0.00 in 236 W/m2
09:54 14.1 °F 1.6 °F 30.18 in West 6.0 mph 9.0 mph 57% 0.00 in 353 W/m2
10:00 14.5 °F 1.6 °F 30.18 in WNW 6.0 mph 6.0 mph 56% 0.00 in 288 W/m2
10:06 14.6 °F 1.7 °F 30.18 in WNW 7.0 mph 12.0 mph 56% 0.00 in 348 W/m2
10:12 14.6 °F 2.1 °F 30.18 in WNW 6.0 mph 7.0 mph 57% 0.00 in 390 W/m2
10:18 15.5 °F 2.6 °F 30.18 in NW 6.0 mph 10.0 mph 56% 0.00 in 371 W/m2
10:24 15.0 °F 2.1 °F 30.18 in NW 6.0 mph 6.0 mph 56% 0.00 in 292 W/m2
10:30 15.2 °F 2.3 °F 30.18 in NNW 6.0 mph 13.0 mph 56% 0.00 in 364 W/m2
10:36 15.1 °F 2.2 °F 30.18 in NW 6.0 mph 13.0 mph 56% 0.00 in 367 W/m2
10:42 14.5 °F 2.8 °F 30.18 in WNW 7.0 mph 7.0 mph 59% 0.00 in 357 W/m2
10:48 14.7 °F 2.6 °F 30.18 in West 7.0 mph 10.0 mph 58% 0.00 in 381 W/m2
10:54 14.7 °F 3.3 °F 30.18 in NNW 7.0 mph 9.0 mph 60% 0.00 in 332 W/m2
11:00 14.6 °F 2.9 °F 30.18 in WNW 6.0 mph 8.0 mph 59% 0.00 in 357 W/m2
11:06 15.1 °F 3.7 °F 30.18 in NW 6.0 mph 10.0 mph 60% 0.00 in 376 W/m2
11:12 15.4 °F 4.7 °F 30.18 in WNW 5.0 mph 8.0 mph 62% 0.00 in 390 W/m2
11:18 15.5 °F 5.1 °F 30.18 in WNW 5.0 mph 9.0 mph 63% 0.00 in 394 W/m2
11:24 15.5 °F 5.5 °F 30.18 in WNW 5.0 mph 6.0 mph 64% 0.00 in 283 W/m2
11:30 14.8 °F 5.2 °F 30.18 in NNW 6.0 mph 12.0 mph 65% 0.00 in 362 W/m2
11:36 15.2 °F 5.5 °F 30.18 in WNW 6.0 mph 12.0 mph 65% 0.00 in 346 W/m2
11:42 15.1 °F 5.4 °F 30.18 in NW 6.0 mph 7.0 mph 65% 0.00 in 452 W/m2
11:48 15.8 °F 5.8 °F 30.18 in WNW 6.0 mph 7.0 mph 64% 0.00 in 390 W/m2
11:54 15.7 °F 5.3 °F 30.18 in WNW 6.0 mph 7.0 mph 63% 0.00 in 441 W/m2
12:00 16.1 °F 5.4 °F 30.18 in NNW 6.0 mph 6.0 mph 62% 0.00 in 353 W/m2
12:06 16.2 °F 5.8 °F 30.18 in NNW 6.0 mph 9.0 mph 63% 0.00 in 438 W/m2
12:12 15.4 °F 5.7 °F 30.18 in North 6.0 mph 6.0 mph 65% 0.00 in 287 W/m2
12:18 15.9 °F 5.5 °F 30.18 in WNW 5.0 mph 7.0 mph 63% 0.00 in 279 W/m2
12:24 15.8 °F 6.4 °F 30.18 in NW 5.0 mph 8.0 mph 66% 0.00 in 322 W/m2
12:30 16.1 °F 5.7 °F 30.18 in WNW 6.0 mph 6.0 mph 63% 0.00 in 294 W/m2
12:36 16.7 °F 6.6 °F 30.18 in NW 5.0 mph 6.0 mph 64% 0.00 in 417 W/m2
12:42 16.4 °F 6.3 °F 30.17 in NW 6.0 mph 6.0 mph 64% 0.00 in 380 W/m2
12:48 16.7 °F 7.0 °F 30.17 in WSW 7.0 mph 11.0 mph 65% 0.00 in 334 W/m2
12:54 16.8 °F 6.0 °F 30.17 in NW 6.0 mph 9.0 mph 62% 0.00 in 283 W/m2
13:00 17.0 °F 6.2 °F 30.17 in WNW 6.0 mph 6.0 mph 62% 0.00 in 223 W/m2
13:06 17.2 °F 6.0 °F 30.17 in NW 5.0 mph 7.0 mph 61% 0.00 in 267 W/m2
13:12 17.0 °F 5.5 °F 30.17 in West 6.0 mph 6.0 mph 60% 0.00 in 281 W/m2
13:40 15.2 °F 9.0 °F 30.17 in WNW 6.0 mph 6.0 mph 76% 0.00 in 79 W/m2
13:46 14.8 °F 9.5 °F 30.18 in WNW 6.0 mph 8.0 mph 79% 0.00 in 84 W/m2
13:52 14.5 °F 10.0 °F 30.17 in NW 6.0 mph 8.0 mph 82% 0.00 in 190 W/m2
13:58 14.8 °F 10.8 °F 30.18 in WNW 6.0 mph 8.0 mph 84% 0.00 in 174 W/m2
14:04 14.8 °F 10.8 °F 30.18 in NW 5.0 mph 8.0 mph 84% 0.00 in 174 W/m2
14:10 14.7 °F 10.7 °F 30.18 in WSW 6.0 mph 10.0 mph 84% 0.00 in 144 W/m2
14:16 14.7 °F 10.7 °F 30.18 in WNW 6.0 mph 10.0 mph 84% 0.00 in 160 W/m2
14:22 14.8 °F 10.6 °F 30.17 in NNW 6.0 mph 6.0 mph 83% 0.00 in 262 W/m2
14:28 15.3 °F 10.2 °F 30.18 in NNW 7.0 mph 10.0 mph 80% 0.00 in 213 W/m2
14:34 15.7 °F 10.6 °F 30.18 in NW 7.0 mph 9.0 mph 80% 0.00 in 336 W/m2
14:40 15.8 °F 11.0 °F 30.18 in WNW 6.0 mph 6.0 mph 81% 0.00 in 195 W/m2
14:46 15.5 °F 9.6 °F 30.18 in WNW 6.0 mph 11.0 mph 77% 0.00 in 155 W/m2
14:52 15.0 °F 9.1 °F 30.18 in West 7.0 mph 7.0 mph 77% 0.00 in 243 W/m2
14:58 15.1 °F 9.8 °F 30.18 in NW 7.0 mph 9.0 mph 79% 0.00 in 243 W/m2
15:04 15.1 °F 10.3 °F 30.18 in NW 7.0 mph 11.0 mph 81% 0.00 in 362 W/m2
15:10 15.7 °F 10.6 °F 30.18 in WNW 6.0 mph 6.0 mph 80% 0.00 in 156 W/m2
15:16 16.4 °F 10.2 °F 30.18 in NW 6.0 mph 6.0 mph 76% 0.00 in 524 W/m2
15:22 17.5 °F 9.4 °F 30.18 in WNW 6.0 mph 6.0 mph 70% 0.00 in 434 W/m2
15:28 17.8 °F 9.3 °F 30.17 in WNW 6.0 mph 9.0 mph 69% 0.00 in 439 W/m2
15:34 17.4 °F 8.3 °F 30.18 in WNW 7.0 mph 12.0 mph 67% 0.00 in 218 W/m2
15:40 17.5 °F 7.4 °F 30.18 in NW 7.0 mph 7.0 mph 64% 0.00 in 262 W/m2
15:46 16.5 °F 8.7 °F 30.18 in WNW 7.0 mph 8.0 mph 71% 0.00 in 100 W/m2
15:52 15.6 °F 9.7 °F 30.18 in WNW 7.0 mph 7.0 mph 77% 0.00 in 146 W/m2
15:58 15.7 °F 10.3 °F 30.18 in NW 6.0 mph 10.0 mph 79% 0.00 in 241 W/m2
16:04 16.1 °F 10.4 °F 30.18 in NW 6.0 mph 6.0 mph 78% 0.00 in 206 W/m2
16:10 16.0 °F 10.3 °F 30.19 in WNW 6.0 mph 6.0 mph 78% 0.00 in 130 W/m2
16:16 15.7 °F 10.6 °F 30.19 in North 5.0 mph 6.0 mph 80% 0.00 in 72 W/m2
16:22 15.1 °F 10.6 °F 30.19 in WNW 6.0 mph 6.0 mph 82% 0.00 in 95 W/m2
16:28 15.4 °F 11.4 °F 30.19 in NNW 4.0 mph 6.0 mph 84% 0.00 in 125 W/m2
16:34 15.5 °F 11.5 °F 30.19 in WNW 4.0 mph 8.0 mph 84% 0.00 in 84 W/m2
16:40 15.5 °F 11.5 °F 30.20 in WNW 5.0 mph 5.0 mph 84% 0.00 in 134 W/m2
16:46 15.6 °F 11.6 °F 30.20 in NW 4.0 mph 6.0 mph 84% 0.00 in 109 W/m2
16:52 15.4 °F 11.4 °F 30.20 in NW 5.0 mph 5.0 mph 84% 0.00 in 63 W/m2
16:58 15.1 °F 11.1 °F 30.20 in West 5.0 mph 9.0 mph 84% 0.00 in 51 W/m2
17:04 15.0 °F 11.0 °F 30.20 in NW 5.0 mph 10.0 mph 84% 0.00 in 58 W/m2
17:10 15.0 °F 11.0 °F 30.20 in NW 5.0 mph 5.0 mph 84% 0.00 in 60 W/m2
17:16 15.0 °F 10.8 °F 30.20 in WNW 5.0 mph 6.0 mph 83% 0.00 in 37 W/m2
17:22 15.2 °F 10.7 °F 30.20 in NNW 5.0 mph 6.0 mph 82% 0.00 in 33 W/m2
17:28 15.4 °F 10.3 °F 30.20 in WNW 5.0 mph 9.0 mph 80% 0.00 in 23 W/m2
17:34 15.5 °F 10.1 °F 30.20 in WNW 5.0 mph 5.0 mph 79% 0.00 in 26 W/m2
17:40 15.5 °F 9.9 °F 30.20 in NNW 5.0 mph 8.0 mph 78% 0.00 in 37 W/m2
17:46 15.5 °F 9.0 °F 30.20 in NW 6.0 mph 9.0 mph 75% 0.00 in 14 W/m2
17:52 15.7 °F 8.0 °F 30.20 in West 7.0 mph 7.0 mph 71% 0.00 in 12 W/m2
17:58 15.7 °F 7.3 °F 30.20 in WNW 6.0 mph 9.0 mph 69% 0.00 in 7 W/m2
18:04 15.8 °F 7.4 °F 30.20 in NNW 6.0 mph 10.0 mph 69% 0.00 in 5 W/m2
18:10 15.9 °F 7.2 °F 30.20 in WNW 5.0 mph 5.0 mph 68% 0.00 in 0 W/m2
18:16 16.0 °F 7.6 °F 30.20 in NW 5.0 mph 8.0 mph 69% 0.00 in 0 W/m2
18:22 15.9 °F 8.2 °F 30.21 in WNW 5.0 mph 8.0 mph 71% 0.00 in 0 W/m2
18:28 15.5 °F 8.7 °F 30.21 in WSW 5.0 mph 9.0 mph 74% 0.00 in 0 W/m2
18:34 15.4 °F 8.6 °F 30.21 in NW 5.0 mph 11.0 mph 74% 0.00 in 0 W/m2
18:40 15.5 °F 8.4 °F 30.21 in WNW 6.0 mph 8.0 mph 73% 0.00 in 0 W/m2
18:46 15.6 °F 8.2 °F 30.21 in WNW 5.0 mph 8.0 mph 72% 0.00 in 0 W/m2
18:52 15.7 °F 8.0 °F 30.21 in NW 4.0 mph 6.0 mph 71% 0.00 in 0 W/m2
18:58 15.8 °F 7.7 °F 30.21 in NW 5.0 mph 13.0 mph 70% 0.00 in 0 W/m2
19:04 15.8 °F 7.7 °F 30.21 in WNW 5.0 mph 9.0 mph 70% 0.00 in 0 W/m2
19:10 15.8 °F 7.7 °F 30.22 in North 4.0 mph 10.0 mph 70% 0.00 in 0 W/m2
19:16 15.7 °F 8.6 °F 30.22 in NNW 5.0 mph 10.0 mph 73% 0.00 in 0 W/m2
19:22 15.2 °F 9.3 °F 30.23 in NNW 5.0 mph 5.0 mph 77% 0.00 in 0 W/m2
19:28 15.1 °F 9.8 °F 30.23 in NNW 4.0 mph 5.0 mph 79% 0.00 in 0 W/m2
19:34 15.1 °F 10.0 °F 30.23 in NW 3.0 mph 8.0 mph 80% 0.00 in 0 W/m2
19:40 15.0 °F 10.2 °F 30.23 in NW 4.0 mph 4.0 mph 81% 0.00 in 0 W/m2
19:46 15.1 °F 10.3 °F 30.23 in WNW 4.0 mph 6.0 mph 81% 0.00 in 0 W/m2
19:52 15.3 °F 10.8 °F 30.23 in WNW 4.0 mph 4.0 mph 82% 0.00 in 0 W/m2
19:58 15.4 °F 10.9 °F 30.23 in WNW 4.0 mph 7.0 mph 82% 0.00 in 0 W/m2
20:04 15.5 °F 11.0 °F 30.23 in WNW 4.0 mph 4.0 mph 82% 0.00 in 0 W/m2
20:10 15.4 °F 10.9 °F 30.23 in WNW 4.0 mph 4.0 mph 82% 0.00 in 0 W/m2
20:16 15.3 °F 10.8 °F 30.23 in WSW 3.0 mph 5.0 mph 82% 0.00 in 0 W/m2
20:22 15.5 °F 10.4 °F 30.23 in WNW 3.0 mph 5.0 mph 80% 0.00 in 0 W/m2
20:28 15.8 °F 9.6 °F 30.23 in NW 3.0 mph 5.0 mph 76% 0.00 in 0 W/m2
20:34 16.0 °F 8.9 °F 30.23 in WNW 5.0 mph 6.0 mph 73% 0.00 in 0 W/m2
20:40 16.0 °F 9.2 °F 30.24 in NNW 5.0 mph 6.0 mph 74% 0.00 in 0 W/m2
20:46 15.9 °F 9.4 °F 30.24 in WNW 4.0 mph 6.0 mph 75% 0.00 in 0 W/m2
20:52 15.8 °F 9.6 °F 30.24 in NNW 4.0 mph 4.0 mph 76% 0.00 in 0 W/m2
20:58 15.7 °F 10.1 °F 30.24 in NW 5.0 mph 5.0 mph 78% 0.00 in 0 W/m2
21:04 15.7 °F 10.1 °F 30.24 in NW 4.0 mph 6.0 mph 78% 0.00 in 0 W/m2
21:10 15.9 °F 9.7 °F 30.25 in North 3.0 mph 3.0 mph 76% 0.00 in 0 W/m2
21:16 16.0 °F 9.2 °F 30.25 in NNW 4.0 mph 7.0 mph 74% 0.00 in 0 W/m2
21:22 16.1 °F 8.3 °F 30.25 in NW 4.0 mph 4.0 mph 71% 0.00 in 0 W/m2
21:28 16.1 °F 7.1 °F 30.25 in NW 5.0 mph 5.0 mph 67% 0.00 in 0 W/m2
21:34 16.1 °F 7.1 °F 30.25 in NW 6.0 mph 6.0 mph 67% 0.00 in 0 W/m2
21:40 16.1 °F 6.7 °F 30.25 in NNW 5.0 mph 5.0 mph 66% 0.00 in 0 W/m2
21:46 16.1 °F 6.4 °F 30.25 in NW 5.0 mph 6.0 mph 65% 0.00 in 0 W/m2
21:52 16.1 °F 5.4 °F 30.26 in NW 5.0 mph 8.0 mph 62% 0.00 in 0 W/m2
21:58 15.9 °F 6.2 °F 30.26 in WNW 5.0 mph 8.0 mph 65% 0.00 in 0 W/m2
22:04 15.6 °F 6.3 °F 30.26 in NW 5.0 mph 5.0 mph 66% 0.00 in 0 W/m2
22:10 15.4 °F 6.4 °F 30.27 in NNW 4.0 mph 4.0 mph 67% 0.00 in 0 W/m2
22:16 15.4 °F 6.1 °F 30.27 in NNW 3.0 mph 4.0 mph 66% 0.00 in 0 W/m2
22:22 15.3 °F 6.0 °F 30.28 in West 4.0 mph 8.0 mph 66% 0.00 in 0 W/m2
22:28 14.8 °F 5.8 °F 30.28 in NNW 6.0 mph 13.0 mph 67% 0.00 in 0 W/m2
22:34 14.7 °F 5.7 °F 30.28 in NNW 5.0 mph 14.0 mph 67% 0.00 in 0 W/m2
22:40 14.5 °F 5.2 °F 30.28 in NW 5.0 mph 5.0 mph 66% 0.00 in 0 W/m2
22:46 14.4 °F 4.4 °F 30.28 in NW 6.0 mph 7.0 mph 64% 0.00 in 0 W/m2
22:52 14.4 °F 4.4 °F 30.28 in NW 4.0 mph 5.0 mph 64% 0.00 in 0 W/m2
22:58 14.3 °F 4.3 °F 30.28 in NNW 3.0 mph 5.0 mph 64% 0.00 in 0 W/m2
23:04 14.2 °F 4.2 °F 30.28 in NW 3.0 mph 6.0 mph 64% 0.00 in 0 W/m2
23:10 14.0 °F 3.7 °F 30.28 in NW 4.0 mph 4.0 mph 63% 0.00 in 0 W/m2
23:16 13.9 °F 3.3 °F 30.29 in NW 4.0 mph 5.0 mph 62% 0.00 in 0 W/m2
23:22 13.7 °F 2.7 °F 30.29 in NNW 4.0 mph 10.0 mph 61% 0.00 in 0 W/m2
23:28 13.6 °F 2.3 °F 30.29 in NW 4.0 mph 10.0 mph 60% 0.00 in 0 W/m2
23:34 13.5 °F 2.5 °F 30.29 in NNW 3.0 mph 7.0 mph 61% 0.00 in 0 W/m2
23:40 13.3 °F 2.3 °F 30.30 in NW 4.0 mph 4.0 mph 61% 0.00 in 0 W/m2
23:46 13.1 °F 2.9 °F 30.30 in North 3.0 mph 4.0 mph 63% 0.00 in 0 W/m2
23:52 13.0 °F 3.4 °F 30.31 in NW 3.0 mph 3.0 mph 65% 0.00 in 0 W/m2
23:58 12.9 °F 3.3 °F 30.31 in NNW 3.0 mph 6.0 mph 65% 0.00 in 0 W/m2
Country Meadow, Clay, NY, USA
Compliments of Weather Underground - 2 mb